sensor_id;sensor_type;location;lat;lon;timestamp;P1;durP1;ratioP1;P2;durP2;ratioP2
21281;SDS011;10800;53.096;18.328;2023-12-28T00:01:05;20.00;;;6.50;;
21281;SDS011;10800;53.096;18.328;2023-12-28T00:06:13;21.03;;;7.27;;
21281;SDS011;10800;53.096;18.328;2023-12-28T00:11:27;21.50;;;8.17;;
21281;SDS011;10800;53.096;18.328;2023-12-28T00:16:33;16.57;;;6.40;;
21281;SDS011;10800;53.096;18.328;2023-12-28T00:21:40;12.27;;;6.27;;
21281;SDS011;10800;53.096;18.328;2023-12-28T00:26:46;11.50;;;5.80;;
21281;SDS011;10800;53.096;18.328;2023-12-28T00:31:53;18.63;;;5.67;;
21281;SDS011;10800;53.096;18.328;2023-12-28T00:36:59;27.50;;;7.40;;
21281;SDS011;10800;53.096;18.328;2023-12-28T00:42:06;18.63;;;7.10;;
21281;SDS011;10800;53.096;18.328;2023-12-28T00:47:13;12.03;;;4.60;;
21281;SDS011;10800;53.096;18.328;2023-12-28T00:52:20;20.37;;;6.87;;
21281;SDS011;10800;53.096;18.328;2023-12-28T00:57:25;8.73;;;4.87;;
21281;SDS011;10800;53.096;18.328;2023-12-28T01:02:31;13.97;;;5.90;;
21281;SDS011;10800;53.096;18.328;2023-12-28T01:07:37;19.83;;;6.60;;
21281;SDS011;10800;53.096;18.328;2023-12-28T01:12:43;7.80;;;3.93;;
21281;SDS011;10800;53.096;18.328;2023-12-28T01:17:50;16.97;;;6.77;;
21281;SDS011;10800;53.096;18.328;2023-12-28T01:22:58;13.70;;;5.27;;
21281;SDS011;10800;53.096;18.328;2023-12-28T01:28:06;17.13;;;6.23;;
21281;SDS011;10800;53.096;18.328;2023-12-28T01:33:13;11.77;;;6.97;;
21281;SDS011;10800;53.096;18.328;2023-12-28T01:38:20;17.53;;;6.63;;
21281;SDS011;10800;53.096;18.328;2023-12-28T01:43:26;20.97;;;5.70;;
21281;SDS011;10800;53.096;18.328;2023-12-28T01:48:32;20.67;;;6.90;;
21281;SDS011;10800;53.096;18.328;2023-12-28T01:53:40;18.93;;;7.43;;
21281;SDS011;10800;53.096;18.328;2023-12-28T01:58:53;30.57;;;6.17;;
21281;SDS011;10800;53.096;18.328;2023-12-28T02:03:58;20.70;;;6.20;;
21281;SDS011;10800;53.096;18.328;2023-12-28T02:09:07;16.17;;;5.27;;
21281;SDS011;10800;53.096;18.328;2023-12-28T02:14:13;6.47;;;4.53;;
21281;SDS011;10800;53.096;18.328;2023-12-28T02:19:31;12.53;;;4.57;;
21281;SDS011;10800;53.096;18.328;2023-12-28T02:30:02;18.53;;;6.10;;
21281;SDS011;10800;53.096;18.328;2023-12-28T02:35:14;11.83;;;6.20;;
21281;SDS011;10800;53.096;18.328;2023-12-28T02:40:23;11.23;;;4.97;;
21281;SDS011;10800;53.096;18.328;2023-12-28T02:45:30;36.23;;;6.53;;
21281;SDS011;10800;53.096;18.328;2023-12-28T02:50:36;13.57;;;5.40;;
21281;SDS011;10800;53.096;18.328;2023-12-28T02:55:46;7.87;;;3.57;;
21281;SDS011;10800;53.096;18.328;2023-12-28T03:00:53;12.10;;;3.50;;
21281;SDS011;10800;53.096;18.328;2023-12-28T03:05:59;6.83;;;3.37;;
21281;SDS011;10800;53.096;18.328;2023-12-28T03:11:06;11.07;;;3.40;;
21281;SDS011;10800;53.096;18.328;2023-12-28T03:16:13;13.50;;;3.57;;
21281;SDS011;10800;53.096;18.328;2023-12-28T03:21:18;8.70;;;4.17;;
21281;SDS011;10800;53.096;18.328;2023-12-28T03:26:25;5.00;;;3.47;;
21281;SDS011;10800;53.096;18.328;2023-12-28T03:31:30;5.07;;;3.10;;
21281;SDS011;10800;53.096;18.328;2023-12-28T03:36:36;6.27;;;3.37;;
21281;SDS011;10800;53.096;18.328;2023-12-28T03:41:42;16.13;;;3.40;;
21281;SDS011;10800;53.096;18.328;2023-12-28T03:46:49;10.07;;;3.83;;
21281;SDS011;10800;53.096;18.328;2023-12-28T03:51:55;14.03;;;5.00;;
21281;SDS011;10800;53.096;18.328;2023-12-28T03:57:02;7.70;;;4.03;;
21281;SDS011;10800;53.096;18.328;2023-12-28T04:02:09;10.97;;;3.33;;
21281;SDS011;10800;53.096;18.328;2023-12-28T04:07:14;15.57;;;5.03;;
21281;SDS011;10800;53.096;18.328;2023-12-28T04:12:20;8.77;;;4.83;;
21281;SDS011;10800;53.096;18.328;2023-12-28T04:17:26;7.73;;;3.90;;
21281;SDS011;10800;53.096;18.328;2023-12-28T04:22:38;8.23;;;3.60;;
21281;SDS011;10800;53.096;18.328;2023-12-28T04:27:43;14.03;;;3.50;;
21281;SDS011;10800;53.096;18.328;2023-12-28T04:32:50;12.70;;;5.20;;
21281;SDS011;10800;53.096;18.328;2023-12-28T04:37:57;12.77;;;5.20;;
21281;SDS011;10800;53.096;18.328;2023-12-28T04:43:04;18.03;;;5.30;;
21281;SDS011;10800;53.096;18.328;2023-12-28T04:48:11;10.00;;;3.03;;
21281;SDS011;10800;53.096;18.328;2023-12-28T04:53:17;7.10;;;3.63;;
21281;SDS011;10800;53.096;18.328;2023-12-28T04:58:23;10.63;;;4.93;;
21281;SDS011;10800;53.096;18.328;2023-12-28T05:03:29;6.63;;;3.77;;
21281;SDS011;10800;53.096;18.328;2023-12-28T05:08:35;5.73;;;3.53;;
21281;SDS011;10800;53.096;18.328;2023-12-28T05:13:40;8.63;;;3.73;;
21281;SDS011;10800;53.096;18.328;2023-12-28T05:18:46;10.33;;;4.50;;
21281;SDS011;10800;53.096;18.328;2023-12-28T05:23:53;7.80;;;3.97;;
21281;SDS011;10800;53.096;18.328;2023-12-28T05:29:01;20.37;;;4.80;;
21281;SDS011;10800;53.096;18.328;2023-12-28T05:34:07;10.23;;;3.67;;
21281;SDS011;10800;53.096;18.328;2023-12-28T05:39:14;15.77;;;6.40;;
21281;SDS011;10800;53.096;18.328;2023-12-28T05:44:20;23.87;;;5.40;;
21281;SDS011;10800;53.096;18.328;2023-12-28T05:49:27;15.30;;;5.67;;
21281;SDS011;10800;53.096;18.328;2023-12-28T05:54:38;17.00;;;5.90;;
21281;SDS011;10800;53.096;18.328;2023-12-28T05:59:54;10.67;;;5.17;;
21281;SDS011;10800;53.096;18.328;2023-12-28T06:05:07;10.23;;;4.33;;
21281;SDS011;10800;53.096;18.328;2023-12-28T06:10:20;17.70;;;5.73;;
21281;SDS011;10800;53.096;18.328;2023-12-28T06:15:29;13.10;;;4.90;;
21281;SDS011;10800;53.096;18.328;2023-12-28T06:20:39;10.67;;;4.87;;
21281;SDS011;10800;53.096;18.328;2023-12-28T06:25:49;11.63;;;5.33;;
21281;SDS011;10800;53.096;18.328;2023-12-28T06:31:03;12.00;;;5.83;;
21281;SDS011;10800;53.096;18.328;2023-12-28T06:36:12;13.47;;;5.30;;
21281;SDS011;10800;53.096;18.328;2023-12-28T06:41:22;5.73;;;3.13;;
21281;SDS011;10800;53.096;18.328;2023-12-28T06:46:30;13.87;;;5.07;;
21281;SDS011;10800;53.096;18.328;2023-12-28T06:51:39;10.27;;;4.13;;
21281;SDS011;10800;53.096;18.328;2023-12-28T06:56:49;20.73;;;5.67;;
21281;SDS011;10800;53.096;18.328;2023-12-28T07:02:05;12.80;;;4.57;;
21281;SDS011;10800;53.096;18.328;2023-12-28T07:07:13;19.00;;;6.13;;
21281;SDS011;10800;53.096;18.328;2023-12-28T07:12:22;14.47;;;4.87;;
21281;SDS011;10800;53.096;18.328;2023-12-28T07:17:33;8.60;;;4.20;;
21281;SDS011;10800;53.096;18.328;2023-12-28T07:22:43;7.67;;;4.30;;
21281;SDS011;10800;53.096;18.328;2023-12-28T07:28:07;9.70;;;4.97;;
21281;SDS011;10800;53.096;18.328;2023-12-28T07:33:20;11.03;;;4.40;;
21281;SDS011;10800;53.096;18.328;2023-12-28T07:38:30;14.20;;;4.20;;
21281;SDS011;10800;53.096;18.328;2023-12-28T07:43:38;16.30;;;5.13;;
21281;SDS011;10800;53.096;18.328;2023-12-28T07:48:47;10.97;;;4.43;;
21281;SDS011;10800;53.096;18.328;2023-12-28T07:54:08;10.67;;;4.63;;
21281;SDS011;10800;53.096;18.328;2023-12-28T07:59:26;6.60;;;3.60;;
21281;SDS011;10800;53.096;18.328;2023-12-28T08:04:55;5.23;;;2.93;;
21281;SDS011;10800;53.096;18.328;2023-12-28T08:10:02;10.93;;;4.13;;
21281;SDS011;10800;53.096;18.328;2023-12-28T08:15:15;7.90;;;3.57;;
21281;SDS011;10800;53.096;18.328;2023-12-28T08:20:39;11.00;;;3.30;;
21281;SDS011;10800;53.096;18.328;2023-12-28T08:25:49;5.13;;;2.77;;
21281;SDS011;10800;53.096;18.328;2023-12-28T08:30:57;8.90;;;3.33;;
21281;SDS011;10800;53.096;18.328;2023-12-28T08:36:05;11.27;;;3.53;;
21281;SDS011;10800;53.096;18.328;2023-12-28T08:41:18;9.07;;;3.50;;
21281;SDS011;10800;53.096;18.328;2023-12-28T08:46:31;6.20;;;3.13;;
21281;SDS011;10800;53.096;18.328;2023-12-28T08:51:39;5.77;;;3.30;;
21281;SDS011;10800;53.096;18.328;2023-12-28T08:57:01;7.50;;;3.27;;
21281;SDS011;10800;53.096;18.328;2023-12-28T09:02:13;7.90;;;3.53;;
21281;SDS011;10800;53.096;18.328;2023-12-28T09:07:25;6.37;;;3.23;;
21281;SDS011;10800;53.096;18.328;2023-12-28T09:12:43;9.33;;;2.90;;
21281;SDS011;10800;53.096;18.328;2023-12-28T09:17:53;4.97;;;2.97;;
21281;SDS011;10800;53.096;18.328;2023-12-28T09:23:13;3.70;;;1.97;;
21281;SDS011;10800;53.096;18.328;2023-12-28T09:28:30;7.00;;;3.60;;
21281;SDS011;10800;53.096;18.328;2023-12-28T09:33:38;3.73;;;2.43;;
21281;SDS011;10800;53.096;18.328;2023-12-28T09:38:44;8.10;;;3.63;;
21281;SDS011;10800;53.096;18.328;2023-12-28T09:44:07;9.73;;;2.90;;
21281;SDS011;10800;53.096;18.328;2023-12-28T09:49:17;4.90;;;2.87;;
21281;SDS011;10800;53.096;18.328;2023-12-28T09:54:28;3.90;;;2.60;;
21281;SDS011;10800;53.096;18.328;2023-12-28T09:59:38;4.40;;;2.40;;
21281;SDS011;10800;53.096;18.328;2023-12-28T10:04:53;9.33;;;3.13;;
21281;SDS011;10800;53.096;18.328;2023-12-28T10:10:00;8.23;;;4.13;;
21281;SDS011;10800;53.096;18.328;2023-12-28T10:15:11;6.83;;;2.83;;
21281;SDS011;10800;53.096;18.328;2023-12-28T10:20:20;3.93;;;3.03;;
21281;SDS011;10800;53.096;18.328;2023-12-28T10:25:26;5.23;;;3.00;;
21281;SDS011;10800;53.096;18.328;2023-12-28T10:30:33;4.07;;;2.67;;
21281;SDS011;10800;53.096;18.328;2023-12-28T10:40:56;8.13;;;3.00;;
21281;SDS011;10800;53.096;18.328;2023-12-28T10:46:18;4.30;;;2.53;;
21281;SDS011;10800;53.096;18.328;2023-12-28T10:51:31;4.33;;;2.47;;
21281;SDS011;10800;53.096;18.328;2023-12-28T10:56:49;5.60;;;2.10;;
21281;SDS011;10800;53.096;18.328;2023-12-28T11:01:58;4.13;;;2.83;;
21281;SDS011;10800;53.096;18.328;2023-12-28T11:07:11;2.93;;;1.77;;
21281;SDS011;10800;53.096;18.328;2023-12-28T11:12:31;6.40;;;2.37;;
21281;SDS011;10800;53.096;18.328;2023-12-28T11:17:42;7.07;;;1.87;;
21281;SDS011;10800;53.096;18.328;2023-12-28T11:23:06;3.70;;;2.37;;
21281;SDS011;10800;53.096;18.328;2023-12-28T11:28:20;2.70;;;2.07;;
21281;SDS011;10800;53.096;18.328;2023-12-28T11:33:45;5.13;;;2.50;;
21281;SDS011;10800;53.096;18.328;2023-12-28T11:38:52;8.10;;;2.93;;
21281;SDS011;10800;53.096;18.328;2023-12-28T11:44:06;3.67;;;1.87;;
21281;SDS011;10800;53.096;18.328;2023-12-28T11:49:17;6.47;;;2.60;;
21281;SDS011;10800;53.096;18.328;2023-12-28T11:54:28;6.83;;;2.67;;
21281;SDS011;10800;53.096;18.328;2023-12-28T11:59:34;4.33;;;1.93;;
21281;SDS011;10800;53.096;18.328;2023-12-28T12:04:44;5.07;;;1.97;;
21281;SDS011;10800;53.096;18.328;2023-12-28T12:09:57;2.60;;;1.80;;
21281;SDS011;10800;53.096;18.328;2023-12-28T12:15:07;3.63;;;1.83;;
21281;SDS011;10800;53.096;18.328;2023-12-28T12:20:22;3.33;;;2.20;;
21281;SDS011;10800;53.096;18.328;2023-12-28T12:25:34;5.67;;;2.00;;
21281;SDS011;10800;53.096;18.328;2023-12-28T12:30:54;4.70;;;2.03;;
21281;SDS011;10800;53.096;18.328;2023-12-28T12:36:02;3.53;;;1.73;;
21281;SDS011;10800;53.096;18.328;2023-12-28T12:41:12;6.03;;;3.63;;
21281;SDS011;10800;53.096;18.328;2023-12-28T12:46:19;7.97;;;3.63;;
21281;SDS011;10800;53.096;18.328;2023-12-28T12:51:26;8.93;;;3.73;;
21281;SDS011;10800;53.096;18.328;2023-12-28T12:56:32;9.07;;;3.17;;
21281;SDS011;10800;53.096;18.328;2023-12-28T13:01:38;15.57;;;4.27;;
21281;SDS011;10800;53.096;18.328;2023-12-28T13:06:44;7.00;;;3.57;;
21281;SDS011;10800;53.096;18.328;2023-12-28T13:11:57;5.87;;;2.33;;
21281;SDS011;10800;53.096;18.328;2023-12-28T13:17:04;5.07;;;1.93;;
21281;SDS011;10800;53.096;18.328;2023-12-28T13:22:21;7.57;;;3.30;;
21281;SDS011;10800;53.096;18.328;2023-12-28T13:27:28;5.10;;;2.63;;
21281;SDS011;10800;53.096;18.328;2023-12-28T13:32:39;3.90;;;1.90;;
21281;SDS011;10800;53.096;18.328;2023-12-28T13:37:49;4.53;;;2.20;;
21281;SDS011;10800;53.096;18.328;2023-12-28T13:48:20;7.40;;;2.23;;
21281;SDS011;10800;53.096;18.328;2023-12-28T13:53:26;4.37;;;2.27;;
21281;SDS011;10800;53.096;18.328;2023-12-28T13:58:35;4.70;;;1.87;;
21281;SDS011;10800;53.096;18.328;2023-12-28T14:03:41;4.30;;;2.03;;
21281;SDS011;10800;53.096;18.328;2023-12-28T14:08:48;2.83;;;1.67;;
21281;SDS011;10800;53.096;18.328;2023-12-28T14:13:54;4.20;;;2.27;;
21281;SDS011;10800;53.096;18.328;2023-12-28T14:19:00;3.90;;;2.10;;
21281;SDS011;10800;53.096;18.328;2023-12-28T14:24:06;4.57;;;2.07;;
21281;SDS011;10800;53.096;18.328;2023-12-28T14:29:13;2.60;;;1.87;;
21281;SDS011;10800;53.096;18.328;2023-12-28T14:34:19;8.77;;;2.40;;
21281;SDS011;10800;53.096;18.328;2023-12-28T14:39:25;7.20;;;2.90;;
21281;SDS011;10800;53.096;18.328;2023-12-28T14:44:31;4.20;;;2.47;;
21281;SDS011;10800;53.096;18.328;2023-12-28T14:49:36;6.43;;;2.40;;
21281;SDS011;10800;53.096;18.328;2023-12-28T14:54:43;3.70;;;2.00;;
21281;SDS011;10800;53.096;18.328;2023-12-28T14:59:49;7.30;;;2.33;;
21281;SDS011;10800;53.096;18.328;2023-12-28T15:04:55;6.10;;;2.80;;
21281;SDS011;10800;53.096;18.328;2023-12-28T15:10:03;3.17;;;2.00;;
21281;SDS011;10800;53.096;18.328;2023-12-28T15:15:11;6.10;;;2.63;;
21281;SDS011;10800;53.096;18.328;2023-12-28T15:20:17;4.27;;;2.20;;
21281;SDS011;10800;53.096;18.328;2023-12-28T15:25:24;8.20;;;3.23;;
21281;SDS011;10800;53.096;18.328;2023-12-28T15:30:29;9.23;;;2.53;;
21281;SDS011;10800;53.096;18.328;2023-12-28T15:35:38;5.13;;;2.53;;
21281;SDS011;10800;53.096;18.328;2023-12-28T15:40:48;3.87;;;1.90;;
21281;SDS011;10800;53.096;18.328;2023-12-28T15:46:16;3.57;;;2.50;;
21281;SDS011;10800;53.096;18.328;2023-12-28T15:51:22;3.97;;;2.13;;
21281;SDS011;10800;53.096;18.328;2023-12-28T15:56:29;4.53;;;1.70;;
21281;SDS011;10800;53.096;18.328;2023-12-28T16:01:35;8.17;;;2.83;;
21281;SDS011;10800;53.096;18.328;2023-12-28T16:06:45;8.70;;;3.23;;
21281;SDS011;10800;53.096;18.328;2023-12-28T16:11:52;6.30;;;2.93;;
21281;SDS011;10800;53.096;18.328;2023-12-28T16:17:16;13.10;;;3.63;;
21281;SDS011;10800;53.096;18.328;2023-12-28T16:22:29;13.60;;;4.60;;
21281;SDS011;10800;53.096;18.328;2023-12-28T16:27:34;9.20;;;2.97;;
21281;SDS011;10800;53.096;18.328;2023-12-28T16:32:40;5.43;;;2.87;;
21281;SDS011;10800;53.096;18.328;2023-12-28T16:37:50;6.87;;;2.67;;
21281;SDS011;10800;53.096;18.328;2023-12-28T16:42:55;4.00;;;2.33;;
21281;SDS011;10800;53.096;18.328;2023-12-28T16:48:01;8.27;;;3.07;;
21281;SDS011;10800;53.096;18.328;2023-12-28T16:53:11;7.43;;;3.73;;
21281;SDS011;10800;53.096;18.328;2023-12-28T16:58:17;4.73;;;2.80;;
21281;SDS011;10800;53.096;18.328;2023-12-28T17:03:23;3.47;;;2.43;;
21281;SDS011;10800;53.096;18.328;2023-12-28T17:08:30;7.53;;;2.20;;
21281;SDS011;10800;53.096;18.328;2023-12-28T17:13:36;5.23;;;2.93;;
21281;SDS011;10800;53.096;18.328;2023-12-28T17:18:43;8.83;;;2.80;;
21281;SDS011;10800;53.096;18.328;2023-12-28T17:23:52;7.90;;;3.07;;
21281;SDS011;10800;53.096;18.328;2023-12-28T17:29:04;5.77;;;2.87;;
21281;SDS011;10800;53.096;18.328;2023-12-28T17:34:11;7.77;;;3.80;;
21281;SDS011;10800;53.096;18.328;2023-12-28T17:39:17;10.33;;;4.67;;
21281;SDS011;10800;53.096;18.328;2023-12-28T17:44:30;6.57;;;3.10;;
21281;SDS011;10800;53.096;18.328;2023-12-28T17:49:38;8.10;;;3.17;;
21281;SDS011;10800;53.096;18.328;2023-12-28T17:54:51;13.57;;;3.57;;
21281;SDS011;10800;53.096;18.328;2023-12-28T17:59:59;7.57;;;2.67;;
21281;SDS011;10800;53.096;18.328;2023-12-28T18:05:25;5.60;;;3.47;;
21281;SDS011;10800;53.096;18.328;2023-12-28T18:10:56;5.07;;;2.87;;
21281;SDS011;10800;53.096;18.328;2023-12-28T18:16:02;11.27;;;4.90;;
21281;SDS011;10800;53.096;18.328;2023-12-28T18:21:16;10.43;;;3.37;;
21281;SDS011;10800;53.096;18.328;2023-12-28T18:38:33;6.00;;;2.80;;
21281;SDS011;10800;53.096;18.328;2023-12-28T18:43:42;7.63;;;3.20;;
21281;SDS011;10800;53.096;18.328;2023-12-28T18:49:31;8.03;;;2.93;;
21281;SDS011;10800;53.096;18.328;2023-12-28T18:54:39;13.40;;;3.10;;
21281;SDS011;10800;53.096;18.328;2023-12-28T18:59:45;5.90;;;2.33;;
21281;SDS011;10800;53.096;18.328;2023-12-28T19:04:50;9.77;;;3.33;;
21281;SDS011;10800;53.096;18.328;2023-12-28T19:09:59;18.33;;;7.47;;
21281;SDS011;10800;53.096;18.328;2023-12-28T19:15:07;5.93;;;3.47;;
21281;SDS011;10800;53.096;18.328;2023-12-28T19:20:13;6.97;;;3.03;;
21281;SDS011;10800;53.096;18.328;2023-12-28T19:25:19;11.33;;;3.73;;
21281;SDS011;10800;53.096;18.328;2023-12-28T19:30:25;5.40;;;2.87;;
21281;SDS011;10800;53.096;18.328;2023-12-28T19:35:31;10.40;;;4.37;;
21281;SDS011;10800;53.096;18.328;2023-12-28T19:40:38;9.23;;;2.83;;
21281;SDS011;10800;53.096;18.328;2023-12-28T19:45:44;7.23;;;3.60;;
21281;SDS011;10800;53.096;18.328;2023-12-28T19:50:49;6.13;;;2.50;;
21281;SDS011;10800;53.096;18.328;2023-12-28T19:55:57;9.40;;;3.93;;
21281;SDS011;10800;53.096;18.328;2023-12-28T20:01:05;7.97;;;2.37;;
21281;SDS011;10800;53.096;18.328;2023-12-28T20:06:11;8.03;;;3.10;;
21281;SDS011;10800;53.096;18.328;2023-12-28T20:11:17;10.47;;;3.27;;
21281;SDS011;10800;53.096;18.328;2023-12-28T20:16:25;2.40;;;2.20;;
21281;SDS011;10800;53.096;18.328;2023-12-28T20:21:30;14.90;;;2.63;;
21281;SDS011;10800;53.096;18.328;2023-12-28T20:26:37;6.40;;;2.87;;
21281;SDS011;10800;53.096;18.328;2023-12-28T20:31:43;11.97;;;4.23;;
21281;SDS011;10800;53.096;18.328;2023-12-28T20:36:53;8.73;;;2.07;;
21281;SDS011;10800;53.096;18.328;2023-12-28T20:41:58;6.27;;;3.10;;
21281;SDS011;10800;53.096;18.328;2023-12-28T20:47:04;4.47;;;2.40;;
21281;SDS011;10800;53.096;18.328;2023-12-28T20:52:16;5.57;;;3.47;;
21281;SDS011;10800;53.096;18.328;2023-12-28T20:57:23;9.60;;;3.80;;
21281;SDS011;10800;53.096;18.328;2023-12-28T21:02:33;5.20;;;2.47;;
21281;SDS011;10800;53.096;18.328;2023-12-28T21:07:41;10.87;;;2.60;;
21281;SDS011;10800;53.096;18.328;2023-12-28T21:12:57;6.47;;;2.87;;
21281;SDS011;10800;53.096;18.328;2023-12-28T21:18:17;10.77;;;2.60;;
21281;SDS011;10800;53.096;18.328;2023-12-28T21:23:44;6.33;;;2.13;;
21281;SDS011;10800;53.096;18.328;2023-12-28T21:29:25;8.03;;;3.00;;
21281;SDS011;10800;53.096;18.328;2023-12-28T21:34:38;10.67;;;3.03;;
21281;SDS011;10800;53.096;18.328;2023-12-28T21:39:57;8.60;;;2.90;;
21281;SDS011;10800;53.096;18.328;2023-12-28T21:45:52;5.40;;;2.87;;
21281;SDS011;10800;53.096;18.328;2023-12-28T21:51:46;4.97;;;2.37;;
21281;SDS011;10800;53.096;18.328;2023-12-28T21:57:35;10.60;;;2.93;;
21281;SDS011;10800;53.096;18.328;2023-12-28T22:08:38;3.23;;;2.13;;
21281;SDS011;10800;53.096;18.328;2023-12-28T22:13:48;4.90;;;2.30;;
21281;SDS011;10800;53.096;18.328;2023-12-28T22:18:55;4.17;;;2.30;;
21281;SDS011;10800;53.096;18.328;2023-12-28T22:24:01;4.77;;;2.27;;
21281;SDS011;10800;53.096;18.328;2023-12-28T22:29:08;6.10;;;2.97;;
21281;SDS011;10800;53.096;18.328;2023-12-28T22:34:16;6.10;;;2.53;;
21281;SDS011;10800;53.096;18.328;2023-12-28T22:39:22;6.70;;;2.67;;
21281;SDS011;10800;53.096;18.328;2023-12-28T22:44:31;8.57;;;3.30;;
21281;SDS011;10800;53.096;18.328;2023-12-28T22:49:37;7.47;;;2.07;;
21281;SDS011;10800;53.096;18.328;2023-12-28T22:54:43;3.57;;;2.33;;
21281;SDS011;10800;53.096;18.328;2023-12-28T22:59:50;4.33;;;2.00;;
21281;SDS011;10800;53.096;18.328;2023-12-28T23:04:56;4.87;;;3.33;;
21281;SDS011;10800;53.096;18.328;2023-12-28T23:10:02;5.87;;;2.63;;
21281;SDS011;10800;53.096;18.328;2023-12-28T23:15:09;4.00;;;2.37;;
21281;SDS011;10800;53.096;18.328;2023-12-28T23:20:16;8.47;;;3.10;;
21281;SDS011;10800;53.096;18.328;2023-12-28T23:25:22;5.77;;;2.93;;
21281;SDS011;10800;53.096;18.328;2023-12-28T23:30:27;5.10;;;3.00;;
21281;SDS011;10800;53.096;18.328;2023-12-28T23:35:35;8.53;;;2.70;;
21281;SDS011;10800;53.096;18.328;2023-12-28T23:40:41;6.00;;;2.50;;
21281;SDS011;10800;53.096;18.328;2023-12-28T23:45:48;4.13;;;2.87;;
21281;SDS011;10800;53.096;18.328;2023-12-28T23:50:53;6.13;;;2.60;;
21281;SDS011;10800;53.096;18.328;2023-12-28T23:55:59;7.27;;;2.93;;
